createdAt,value
2023-03-29T00:02:13.257Z,99.90
2023-03-29T00:04:41.318Z,99.90
2023-03-29T00:07:08.909Z,99.90
2023-03-29T00:09:35.855Z,99.90
2023-03-29T00:12:02.648Z,99.90
2023-03-29T00:14:30.951Z,99.90
2023-03-29T00:17:30.328Z,99.90
2023-03-29T00:19:59.246Z,99.90
2023-03-29T00:22:26.179Z,99.90
2023-03-29T00:24:54.278Z,99.90
2023-03-29T00:27:23.350Z,99.90
2023-03-29T00:29:50.213Z,99.90
2023-03-29T00:32:17.226Z,99.90
2023-03-29T00:34:46.156Z,99.90
2023-03-29T00:37:14.863Z,99.90
2023-03-29T00:39:42.293Z,99.90
2023-03-29T00:42:13.861Z,99.90
2023-03-29T00:45:11.849Z,99.90
2023-03-29T00:48:05.729Z,99.90
2023-03-29T00:50:36.453Z,99.90
2023-03-29T00:53:39.376Z,99.90
2023-03-29T00:56:07.980Z,99.90
2023-03-29T00:58:43.892Z,99.90
2023-03-29T01:01:19.368Z,99.90
2023-03-29T01:03:50.426Z,99.90
2023-03-29T01:06:19.568Z,99.90
2023-03-29T01:08:55.716Z,99.90
2023-03-29T01:11:30.927Z,99.90
2023-03-29T01:14:18.972Z,99.90
2023-03-29T01:16:46.700Z,99.90
2023-03-29T01:19:18.293Z,99.90
2023-03-29T01:22:13.604Z,99.90
2023-03-29T01:25:11.305Z,99.90
2023-03-29T01:28:00.720Z,99.90
2023-03-29T01:30:42.144Z,99.90
2023-03-29T01:33:32.833Z,99.90
2023-03-29T01:36:08.223Z,99.90
2023-03-29T01:38:45.844Z,99.90
2023-03-29T01:41:12.642Z,99.90
2023-03-29T01:44:02.729Z,99.90
2023-03-29T01:46:45.626Z,99.90
2023-03-29T01:49:14.628Z,99.90
2023-03-29T01:51:53.305Z,99.90
2023-03-29T01:54:26.288Z,99.90
2023-03-29T01:56:53.679Z,99.90
2023-03-29T01:59:26.264Z,99.90
2023-03-29T02:01:57.436Z,99.90
2023-03-29T02:04:34.689Z,99.90
2023-03-29T02:07:03.894Z,99.90
2023-03-29T02:09:32.404Z,99.90
2023-03-29T02:12:02.166Z,99.90
2023-03-29T02:14:30.460Z,99.90
2023-03-29T02:17:08.804Z,99.90
2023-03-29T02:19:35.796Z,99.90
2023-03-29T02:22:09.589Z,99.90
2023-03-29T02:24:39.003Z,99.90
2023-03-29T02:27:06.176Z,99.90
2023-03-29T02:29:33.000Z,99.90
2023-03-29T02:32:05.823Z,99.90
2023-03-29T02:34:50.290Z,99.90
2023-03-29T02:37:20.121Z,99.90
2023-03-29T02:39:49.770Z,99.90
2023-03-29T02:42:20.344Z,99.90
2023-03-29T02:44:50.930Z,99.90
2023-03-29T02:47:25.295Z,99.90
2023-03-29T02:49:53.257Z,99.90
2023-03-29T02:52:25.814Z,99.90
2023-03-29T02:54:55.428Z,99.90
2023-03-29T02:57:26.563Z,99.90
2023-03-29T02:59:55.576Z,99.90
2023-03-29T03:02:22.626Z,99.90
2023-03-29T03:04:50.116Z,99.90
2023-03-29T03:07:17.432Z,99.90
2023-03-29T03:09:44.652Z,99.90
2023-03-29T03:12:11.550Z,99.90
2023-03-29T03:14:38.357Z,99.90
2023-03-29T03:17:05.335Z,99.90
2023-03-29T03:19:32.173Z,99.90
2023-03-29T03:21:59.695Z,99.90
2023-03-29T03:24:28.109Z,99.90
2023-03-29T03:26:55.400Z,99.90
2023-03-29T03:29:22.272Z,99.90
2023-03-29T03:31:49.901Z,99.90
2023-03-29T03:34:19.438Z,99.90
2023-03-29T03:36:47.422Z,99.90
2023-03-29T03:39:14.447Z,99.90
2023-03-29T03:41:41.245Z,99.90
2023-03-29T03:44:08.115Z,99.90
2023-03-29T03:46:34.979Z,99.90
2023-03-29T03:49:01.782Z,99.90
2023-03-29T03:51:28.992Z,99.90
2023-03-29T03:53:56.088Z,99.90
2023-03-29T03:56:24.034Z,99.90
2023-03-29T03:58:51.675Z,99.90
2023-03-29T04:01:19.666Z,99.90
2023-03-29T04:03:46.480Z,99.90
2023-03-29T04:06:13.389Z,99.90
2023-03-29T04:08:42.180Z,99.90
2023-03-29T04:11:09.278Z,99.90
2023-03-29T04:13:37.424Z,99.90
2023-03-29T04:16:04.846Z,99.90
2023-03-29T04:18:32.346Z,99.90
2023-03-29T04:20:59.863Z,99.90
2023-03-29T04:23:27.046Z,99.90
2023-03-29T04:25:58.936Z,99.90
2023-03-29T04:28:25.762Z,99.90
2023-03-29T04:30:52.795Z,99.90
2023-03-29T04:33:20.686Z,99.90
2023-03-29T04:35:47.775Z,99.90
2023-03-29T04:38:14.686Z,99.90
2023-03-29T04:40:42.178Z,99.90
2023-03-29T04:43:08.984Z,99.90
2023-03-29T04:45:36.941Z,99.90
2023-03-29T04:48:03.863Z,99.90
2023-03-29T04:50:30.947Z,99.90
2023-03-29T04:53:01.222Z,99.90
2023-03-29T04:55:28.260Z,99.90
2023-03-29T04:57:55.765Z,99.90
2023-03-29T05:00:27.343Z,99.90
2023-03-29T05:02:54.830Z,99.90
2023-03-29T05:05:21.925Z,99.90
2023-03-29T05:07:48.974Z,99.90
2023-03-29T05:10:16.179Z,99.90
2023-03-29T05:12:43.230Z,99.90
2023-03-29T05:15:10.532Z,99.90
2023-03-29T05:17:37.495Z,99.90
2023-03-29T05:20:09.747Z,99.90
2023-03-29T05:22:36.659Z,99.90
2023-03-29T05:25:03.841Z,99.90
2023-03-29T05:27:30.793Z,99.90
2023-03-29T05:29:57.830Z,99.90
2023-03-29T05:32:24.776Z,99.90
2023-03-29T05:34:51.623Z,99.90
2023-03-29T05:37:18.808Z,99.90
2023-03-29T05:39:45.644Z,99.90
2023-03-29T05:42:13.836Z,99.90
2023-03-29T05:44:40.717Z,99.90
2023-03-29T05:47:08.124Z,99.90
2023-03-29T05:49:34.957Z,99.90
2023-03-29T05:52:02.499Z,99.90
2023-03-29T05:54:29.406Z,99.90
2023-03-29T05:56:56.330Z,99.90
2023-03-29T05:59:24.402Z,99.90
2023-03-29T06:01:52.546Z,99.90
2023-03-29T06:04:19.493Z,99.90
2023-03-29T06:06:46.652Z,99.90
2023-03-29T06:09:13.551Z,99.90
2023-03-29T06:11:40.888Z,99.90
2023-03-29T06:14:07.822Z,99.90
2023-03-29T06:16:36.446Z,99.90
2023-03-29T06:19:03.313Z,99.90
2023-03-29T06:21:31.572Z,99.90
2023-03-29T06:23:58.927Z,99.90
2023-03-29T06:26:27.866Z,99.90
2023-03-29T06:28:55.122Z,99.90
2023-03-29T06:31:22.158Z,99.90
2023-03-29T06:33:49.640Z,99.90
2023-03-29T06:36:16.899Z,99.90
2023-03-29T06:38:45.932Z,99.90
2023-03-29T06:41:12.800Z,99.90
2023-03-29T06:43:39.786Z,99.90
2023-03-29T06:46:12.031Z,99.90
2023-03-29T06:48:41.010Z,99.90
2023-03-29T06:51:08.707Z,99.90
2023-03-29T06:53:36.681Z,99.90
2023-03-29T06:56:09.180Z,99.90
2023-03-29T06:58:36.621Z,99.90
2023-03-29T07:01:04.566Z,99.90
2023-03-29T07:03:34.982Z,99.90
2023-03-29T07:06:09.656Z,99.90
2023-03-29T07:08:43.534Z,99.90
2023-03-29T07:11:13.185Z,99.90
2023-03-29T07:13:42.638Z,99.90
2023-03-29T07:16:13.825Z,99.90
2023-03-29T07:18:43.031Z,99.90
2023-03-29T07:21:11.719Z,99.90
2023-03-29T07:23:39.489Z,99.90
2023-03-29T07:26:10.382Z,99.90
2023-03-29T07:28:37.894Z,99.90
2023-03-29T07:31:11.230Z,99.90
2023-03-29T07:33:39.363Z,99.90
2023-03-29T07:36:07.562Z,99.90
2023-03-29T07:38:34.516Z,99.90
2023-03-29T07:41:06.715Z,99.90
2023-03-29T07:43:34.436Z,99.90
2023-03-29T07:46:03.073Z,99.90
2023-03-29T07:48:30.385Z,99.90
2023-03-29T07:50:57.587Z,99.90
2023-03-29T07:53:24.786Z,99.90
2023-03-29T07:55:52.567Z,99.90
2023-03-29T07:58:20.164Z,99.90
2023-03-29T08:00:49.161Z,99.90
2023-03-29T08:03:16.515Z,99.90
2023-03-29T08:05:43.621Z,99.90
2023-03-29T08:08:10.792Z,99.90
2023-03-29T08:10:39.478Z,99.90
2023-03-29T08:13:08.423Z,99.90
2023-03-29T08:15:37.983Z,99.90
2023-03-29T08:18:05.462Z,99.90
2023-03-29T08:20:32.788Z,99.90
2023-03-29T08:22:59.641Z,99.90
2023-03-29T08:25:27.057Z,99.90
2023-03-29T08:27:54.170Z,99.90
2023-03-29T08:30:21.517Z,99.90
2023-03-29T08:32:50.874Z,99.90
2023-03-29T08:35:19.996Z,99.90
2023-03-29T08:37:46.968Z,99.90
2023-03-29T08:40:21.582Z,99.90
2023-03-29T08:43:18.536Z,99.90
2023-03-29T08:46:09.249Z,99.90
2023-03-29T08:48:44.469Z,99.90
2023-03-29T08:51:34.627Z,99.90
2023-03-29T08:54:10.636Z,99.90
2023-03-29T08:56:40.614Z,99.90
2023-03-29T08:59:20.667Z,99.90
2023-03-29T09:01:50.608Z,99.30
2023-03-29T09:04:28.853Z,96.10
2023-03-29T09:06:56.168Z,94.70
2023-03-29T09:09:27.810Z,89.90
2023-03-29T09:12:24.913Z,84.60
2023-03-29T09:15:15.522Z,73.20
2023-03-29T09:18:01.084Z,73.20
2023-03-29T09:20:47.608Z,72.10
2023-03-29T09:23:22.442Z,70.50
2023-03-29T09:26:06.792Z,70.00
2023-03-29T09:28:40.747Z,67.60
2023-03-29T09:31:20.294Z,60.70
2023-03-29T09:33:56.543Z,60.90
2023-03-29T09:36:38.589Z,60.60
2023-03-29T09:39:06.216Z,56.60
2023-03-29T09:41:41.607Z,56.50
2023-03-29T09:44:24.190Z,56.00
2023-03-29T09:47:22.099Z,54.10
2023-03-29T09:49:51.970Z,54.80
2023-03-29T09:52:20.923Z,54.30
2023-03-29T09:54:48.212Z,53.70
2023-03-29T09:57:19.942Z,51.10
2023-03-29T09:59:50.562Z,50.60
2023-03-29T10:02:20.414Z,46.30
2023-03-29T10:04:55.444Z,46.30
2023-03-29T10:07:22.787Z,48.10
2023-03-29T10:09:52.605Z,46.30
2023-03-29T10:12:20.529Z,45.70
2023-03-29T10:14:53.920Z,46.60
2023-03-29T10:17:25.991Z,45.30
2023-03-29T10:19:57.116Z,44.10
2023-03-29T10:22:27.250Z,42.80
2023-03-29T10:24:57.227Z,41.70
2023-03-29T10:27:28.156Z,44.10
2023-03-29T10:29:56.491Z,46.40
2023-03-29T10:32:28.345Z,47.30
2023-03-29T10:34:59.133Z,47.70
2023-03-29T10:37:28.945Z,46.70
2023-03-29T10:39:56.086Z,46.00
2023-03-29T10:42:25.776Z,47.30
2023-03-29T10:44:56.103Z,47.50
2023-03-29T10:47:23.992Z,47.10
2023-03-29T10:49:57.390Z,49.50
2023-03-29T10:52:25.017Z,49.50
2023-03-29T10:54:54.463Z,49.70
2023-03-29T10:57:37.624Z,49.40
2023-03-29T11:00:34.508Z,48.40
2023-03-29T11:03:23.547Z,48.10
2023-03-29T11:06:22.840Z,49.60
2023-03-29T11:08:52.758Z,50.30
2023-03-29T11:11:41.081Z,49.70
2023-03-29T11:14:19.909Z,48.40
2023-03-29T11:16:53.117Z,48.20
2023-03-29T11:19:53.482Z,47.90
2023-03-29T11:22:24.186Z,47.20
2023-03-29T11:25:04.518Z,45.40
2023-03-29T11:27:46.264Z,47.90
2023-03-29T11:30:44.607Z,50.10
2023-03-29T11:33:28.948Z,54.00
2023-03-29T11:36:05.382Z,51.70
2023-03-29T11:38:39.683Z,49.10
2023-03-29T11:41:18.726Z,47.20
2023-03-29T11:43:56.757Z,46.70
2023-03-29T11:46:27.319Z,47.10
2023-03-29T11:49:06.283Z,48.10
2023-03-29T11:51:46.300Z,45.50
2023-03-29T11:54:29.968Z,44.30
2023-03-29T11:57:05.799Z,46.40
2023-03-29T11:59:35.424Z,44.40
2023-03-29T12:02:14.284Z,45.90
2023-03-29T12:04:49.467Z,45.50
2023-03-29T12:07:58.450Z,41.60
2023-03-29T12:10:34.027Z,40.80
2023-03-29T12:13:09.491Z,41.90
2023-03-29T12:15:45.673Z,42.00
2023-03-29T12:18:27.603Z,41.60
2023-03-29T12:21:02.201Z,41.80
2023-03-29T12:23:34.138Z,39.20
2023-03-29T12:26:24.547Z,40.50
2023-03-29T12:28:57.241Z,39.10
2023-03-29T12:32:02.490Z,39.20
2023-03-29T12:34:55.924Z,39.00
2023-03-29T12:38:14.457Z,36.70
2023-03-29T12:40:47.981Z,34.50
2023-03-29T12:43:29.175Z,37.90
2023-03-29T12:46:08.118Z,36.70
2023-03-29T12:48:38.968Z,36.50
2023-03-29T12:51:13.737Z,35.80
2023-03-29T12:53:49.466Z,38.10
2023-03-29T12:56:23.536Z,36.30
2023-03-29T12:59:07.734Z,38.20
2023-03-29T13:01:41.570Z,35.40
2023-03-29T13:04:21.996Z,34.70
2023-03-29T13:06:50.521Z,36.00
2023-03-29T13:09:30.037Z,33.70
2023-03-29T13:12:11.603Z,33.40
2023-03-29T13:14:44.321Z,32.70
2023-03-29T13:17:39.790Z,34.00
2023-03-29T13:20:33.905Z,32.50
2023-03-29T13:23:51.576Z,33.50
2023-03-29T13:26:30.205Z,34.50
2023-03-29T13:29:21.589Z,34.60
2023-03-29T13:32:16.202Z,35.50
2023-03-29T13:35:02.235Z,36.30
2023-03-29T13:37:48.955Z,36.40
2023-03-29T13:40:28.372Z,38.50
2023-03-29T13:43:08.740Z,38.80
2023-03-29T13:45:36.195Z,37.40
2023-03-29T13:48:22.965Z,37.50
2023-03-29T13:50:57.705Z,39.50
2023-03-29T13:53:34.930Z,37.60
2023-03-29T13:56:03.228Z,38.30
2023-03-29T13:58:48.026Z,37.60
2023-03-29T14:01:28.387Z,39.40
2023-03-29T14:03:56.784Z,37.20
2023-03-29T14:06:33.270Z,37.30
2023-03-29T14:12:17.325Z,36.10
2023-03-29T14:14:58.412Z,34.50
2023-03-29T14:17:26.699Z,35.90
2023-03-29T14:19:57.645Z,35.90
2023-03-29T14:22:32.872Z,34.80
2023-03-29T14:25:07.621Z,35.10
2023-03-29T14:27:37.246Z,35.70
2023-03-29T14:30:18.900Z,35.60
2023-03-29T14:32:46.062Z,35.80
2023-03-29T14:35:13.032Z,35.30
2023-03-29T14:37:42.884Z,36.40
2023-03-29T14:40:19.248Z,37.10
2023-03-29T14:42:48.663Z,36.10
2023-03-29T14:45:17.609Z,37.80
2023-03-29T14:47:49.693Z,37.80
2023-03-29T14:50:26.161Z,37.50
2023-03-29T14:52:53.878Z,38.30
2023-03-29T14:55:23.952Z,37.90
2023-03-29T14:57:58.108Z,38.80
2023-03-29T15:00:40.106Z,41.20
2023-03-29T15:03:18.279Z,39.40
2023-03-29T15:05:53.415Z,38.30
2023-03-29T15:08:35.782Z,37.80
2023-03-29T15:11:03.750Z,38.20
2023-03-29T15:13:31.060Z,39.20
2023-03-29T15:16:07.576Z,41.00
2023-03-29T15:18:42.260Z,41.00
2023-03-29T15:21:13.042Z,41.20
2023-03-29T15:24:01.171Z,41.70
2023-03-29T15:26:33.876Z,41.90
2023-03-29T15:29:13.778Z,41.40
2023-03-29T15:31:42.006Z,42.10
2023-03-29T15:34:14.696Z,42.70
2023-03-29T15:36:45.251Z,42.80
2023-03-29T15:39:14.313Z,43.20
2023-03-29T15:41:42.216Z,44.00
2023-03-29T15:44:09.715Z,44.60
2023-03-29T15:46:36.965Z,45.20
2023-03-29T15:49:05.045Z,46.00
2023-03-29T15:51:32.108Z,46.20
2023-03-29T15:53:58.925Z,46.50
2023-03-29T15:56:37.146Z,46.60
2023-03-29T15:59:04.824Z,46.80
2023-03-29T16:01:38.834Z,47.60
2023-03-29T16:04:14.453Z,47.90
2023-03-29T16:06:42.045Z,48.50
2023-03-29T16:09:12.739Z,49.20
2023-03-29T16:11:41.394Z,49.00
2023-03-29T16:14:27.461Z,48.80
2023-03-29T16:17:27.937Z,49.20
2023-03-29T16:19:54.817Z,49.60
2023-03-29T16:22:22.122Z,50.00
2023-03-29T16:24:49.306Z,50.20
2023-03-29T16:27:17.918Z,50.30
2023-03-29T16:29:44.780Z,50.50
2023-03-29T16:32:21.829Z,51.10
2023-03-29T16:34:48.975Z,51.30
2023-03-29T16:37:15.962Z,51.60
2023-03-29T16:39:42.753Z,52.10
2023-03-29T16:42:12.078Z,52.20
2023-03-29T16:44:39.178Z,52.70
2023-03-29T16:47:06.309Z,52.80
2023-03-29T16:49:33.737Z,52.70
2023-03-29T16:52:01.542Z,52.90
2023-03-29T16:54:29.841Z,53.10
2023-03-29T16:56:57.804Z,53.50
2023-03-29T16:59:24.728Z,54.10
2023-03-29T17:01:51.704Z,54.40
2023-03-29T17:04:18.628Z,54.50
2023-03-29T17:06:58.366Z,54.90
2023-03-29T17:09:27.216Z,55.20
2023-03-29T17:11:56.156Z,55.30
2023-03-29T17:14:25.485Z,55.50
2023-03-29T17:16:55.386Z,55.80
2023-03-29T17:19:22.648Z,56.10
2023-03-29T17:21:49.505Z,56.10
2023-03-29T17:24:16.362Z,56.20
2023-03-29T17:26:45.707Z,56.50
2023-03-29T17:29:13.860Z,56.40
2023-03-29T17:31:47.583Z,56.70
2023-03-29T17:34:15.641Z,57.10
2023-03-29T17:36:42.488Z,57.00
2023-03-29T17:39:09.900Z,57.40
2023-03-29T17:41:36.741Z,57.50
2023-03-29T17:44:03.845Z,57.60
2023-03-29T17:46:34.289Z,57.40
2023-03-29T17:49:01.372Z,57.90
2023-03-29T17:51:28.262Z,58.20
2023-03-29T17:53:56.850Z,58.20
2023-03-29T17:56:24.327Z,58.40
2023-03-29T17:58:51.292Z,58.70
2023-03-29T18:01:22.087Z,58.90
2023-03-29T18:03:49.258Z,59.60
2023-03-29T18:06:20.139Z,59.20
2023-03-29T18:08:47.476Z,59.30
2023-03-29T18:11:22.217Z,59.40
2023-03-29T18:13:50.475Z,59.30
2023-03-29T18:16:17.681Z,59.50
2023-03-29T18:18:46.361Z,60.20
2023-03-29T18:21:16.104Z,60.80
2023-03-29T18:23:47.915Z,61.10
2023-03-29T18:26:17.115Z,61.00
2023-03-29T18:28:47.281Z,61.10
2023-03-29T18:31:15.461Z,61.80
2023-03-29T18:33:42.412Z,61.70
2023-03-29T18:36:12.981Z,61.40
2023-03-29T18:38:43.335Z,61.80
2023-03-29T18:41:13.244Z,62.10
2023-03-29T18:43:41.360Z,62.10
2023-03-29T18:46:08.657Z,62.30
2023-03-29T18:48:39.048Z,62.10
2023-03-29T18:51:07.821Z,62.20
2023-03-29T18:53:35.856Z,62.50
2023-03-29T18:56:04.475Z,62.80
2023-03-29T18:58:31.573Z,62.90
2023-03-29T19:01:04.131Z,63.30
2023-03-29T19:03:35.009Z,63.40
2023-03-29T19:06:02.472Z,63.70
2023-03-29T19:08:33.002Z,65.10
2023-03-29T19:11:08.838Z,63.60
2023-03-29T19:13:36.612Z,64.20
2023-03-29T19:16:04.432Z,64.70
2023-03-29T19:18:31.645Z,65.00
2023-03-29T19:20:58.526Z,65.30
2023-03-29T19:23:27.599Z,65.40
2023-03-29T19:25:57.628Z,65.00
2023-03-29T19:28:25.152Z,65.30
2023-03-29T19:30:52.295Z,65.80
2023-03-29T19:33:25.796Z,66.00
2023-03-29T19:35:53.080Z,66.20
2023-03-29T19:38:21.176Z,66.00
2023-03-29T19:40:51.718Z,66.00
2023-03-29T19:43:20.731Z,66.30
2023-03-29T19:45:49.672Z,66.90
2023-03-29T19:50:47.809Z,67.00
2023-03-29T19:53:14.747Z,67.80
2023-03-29T19:55:43.536Z,66.60
2023-03-29T19:58:10.571Z,67.30
2023-03-29T20:00:39.060Z,67.80
2023-03-29T20:03:09.884Z,68.20
2023-03-29T20:05:38.816Z,68.00
2023-03-29T20:08:06.855Z,68.40
2023-03-29T20:10:34.384Z,68.80
2023-03-29T20:13:02.358Z,69.10
2023-03-29T20:15:29.525Z,69.40
2023-03-29T20:17:59.321Z,68.80
2023-03-29T20:20:30.046Z,69.60
2023-03-29T20:23:04.704Z,70.00
2023-03-29T20:25:34.394Z,70.20
2023-03-29T20:28:01.279Z,70.40
2023-03-29T20:30:28.161Z,70.50
2023-03-29T20:32:55.242Z,71.40
2023-03-29T20:35:22.129Z,71.70
2023-03-29T20:37:49.042Z,72.10
2023-03-29T20:40:16.208Z,72.40
2023-03-29T20:42:46.493Z,72.90
2023-03-29T20:45:18.633Z,72.60
2023-03-29T20:47:57.783Z,73.00
2023-03-29T20:50:30.242Z,74.40
2023-03-29T20:52:57.517Z,74.00
2023-03-29T20:55:24.754Z,74.80
2023-03-29T20:57:58.466Z,74.90
2023-03-29T21:00:27.352Z,75.40
2023-03-29T21:03:00.778Z,75.50
2023-03-29T21:05:29.251Z,76.10
2023-03-29T21:07:56.978Z,77.20
2023-03-29T21:10:24.980Z,76.90
2023-03-29T21:12:54.287Z,77.00
2023-03-29T21:15:21.392Z,77.70
2023-03-29T21:17:48.325Z,78.10
2023-03-29T21:20:15.895Z,78.80
2023-03-29T21:22:45.741Z,79.60
2023-03-29T21:25:15.572Z,80.60
2023-03-29T21:27:43.138Z,80.80
2023-03-29T21:30:10.811Z,81.80
2023-03-29T21:32:37.720Z,82.00
2023-03-29T21:35:07.283Z,82.80
2023-03-29T21:37:34.138Z,83.30
2023-03-29T21:40:04.714Z,83.90
2023-03-29T21:42:35.775Z,84.50
2023-03-29T21:45:03.041Z,85.30
2023-03-29T21:47:30.419Z,85.20
2023-03-29T21:49:57.210Z,85.70
2023-03-29T21:52:24.023Z,86.30
2023-03-29T21:54:50.941Z,87.10
2023-03-29T21:57:18.084Z,87.50
2023-03-29T21:59:44.845Z,87.80
2023-03-29T22:02:11.787Z,88.40
2023-03-29T22:04:38.921Z,89.30
2023-03-29T22:07:06.726Z,90.60
2023-03-29T22:09:35.127Z,91.20
2023-03-29T22:12:03.414Z,90.90
2023-03-29T22:14:34.726Z,91.30
2023-03-29T22:17:02.197Z,91.00
2023-03-29T22:19:29.190Z,91.00
2023-03-29T22:22:01.519Z,91.50
2023-03-29T22:24:29.333Z,91.60
2023-03-29T22:26:56.466Z,91.70
2023-03-29T22:29:23.351Z,92.10
2023-03-29T22:31:50.290Z,92.60
2023-03-29T22:34:18.493Z,92.60
2023-03-29T22:36:45.762Z,92.90
2023-03-29T22:39:13.470Z,93.60
2023-03-29T22:41:40.281Z,93.90
2023-03-29T22:44:07.152Z,94.20
2023-03-29T22:46:34.407Z,95.00
2023-03-29T22:49:01.332Z,95.00
2023-03-29T22:51:28.731Z,95.40
2023-03-29T22:53:55.767Z,96.00
2023-03-29T22:56:23.298Z,95.80
2023-03-29T22:58:50.157Z,96.00
2023-03-29T23:01:17.146Z,96.80
2023-03-29T23:03:44.066Z,97.20
2023-03-29T23:06:12.258Z,97.30
2023-03-29T23:08:39.124Z,97.60
2023-03-29T23:11:07.404Z,98.20
2023-03-29T23:13:35.635Z,98.60
2023-03-29T23:16:05.526Z,99.10
2023-03-29T23:18:34.929Z,99.80
2023-03-29T23:21:03.660Z,99.90
2023-03-29T23:23:31.111Z,99.90
2023-03-29T23:25:58.196Z,99.90
2023-03-29T23:28:27.521Z,99.90
2023-03-29T23:31:02.322Z,99.90
2023-03-29T23:33:35.521Z,99.90
2023-03-29T23:36:05.355Z,99.90
2023-03-29T23:38:34.326Z,99.90
2023-03-29T23:41:03.196Z,99.90
2023-03-29T23:43:33.206Z,99.90
2023-03-29T23:46:05.739Z,99.90
2023-03-29T23:48:34.188Z,99.90
2023-03-29T23:51:02.504Z,99.90
2023-03-29T23:53:30.660Z,99.90
2023-03-29T23:56:03.041Z,99.90
2023-03-29T23:58:32.416Z,99.90
